Time;durP1;ratioP1;P1;durP2;ratioP2;P2;SDS_P1;SDS_P2;PMS_P1;PMS_P2;Temp;Humidity;BMP_temperature;BMP_pressure;BME280_temperature;BME280_humidity;BME280_pressure;Samples;Min_cycle;Max_cycle;Signal;HPM_P1;HPM_P2
2021/08/01 00:01:36;;;;;;;12.77;4.75;;;26.50;59.60;;;;;;5042920;28;20188;-75
2021/08/01 00:04:03;;;;;;;6.50;4.80;;;26.50;60.10;;;;;;5024881;28;20203;-75
2021/08/01 00:06:29;;;;;;;12.30;5.00;;;26.50;59.00;;;;;;5042258;28;20190;-76
2021/08/01 00:08:56;;;;;;;7.20;4.60;;;26.50;59.60;;;;;;5040912;28;20278;-75
2021/08/01 00:11:22;;;;;;;9.50;4.78;;;26.50;58.70;;;;;;5043951;28;20175;-75
2021/08/01 00:13:49;;;;;;;6.10;4.15;;;26.50;60.40;;;;;;5040004;28;20599;-75
2021/08/01 00:16:15;;;;;;;7.28;4.10;;;26.50;58.90;;;;;;5048607;28;20218;-76
2021/08/01 00:18:41;;;;;;;9.00;4.60;;;26.40;58.40;;;;;;5053132;28;20180;-76
2021/08/01 00:21:08;;;;;;;9.80;4.75;;;26.50;59.10;;;;;;5024702;28;20198;-75
2021/08/01 00:23:34;;;;;;;11.13;4.65;;;26.50;59.10;;;;;;5040083;28;20219;-75
2021/08/01 00:26:01;;;;;;;9.02;4.40;;;26.50;59.00;;;;;;5042285;28;20266;-75
2021/08/01 00:28:27;;;;;;;7.50;4.18;;;26.50;59.00;;;;;;5053944;28;20696;-76
2021/08/01 00:30:53;;;;;;;10.93;4.15;;;26.50;59.20;;;;;;5042073;28;20217;-75
2021/08/01 00:33:20;;;;;;;9.52;4.70;;;26.40;58.70;;;;;;5037416;28;20325;-75
2021/08/01 00:35:46;;;;;;;7.50;3.88;;;26.40;58.10;;;;;;5055468;28;20198;-76
2021/08/01 00:38:13;;;;;;;5.65;3.67;;;26.40;59.10;;;;;;5029732;28;20195;-76
2021/08/01 00:40:39;;;;;;;7.00;4.07;;;26.40;58.40;;;;;;5026227;28;20188;-75
2021/08/01 00:43:05;;;;;;;7.40;4.28;;;26.40;58.50;;;;;;5041758;28;20196;-75
2021/08/01 00:45:34;;;;;;;8.45;4.03;;;26.40;58.40;;;;;;5040379;28;20597;-75
2021/08/01 00:48:01;;;;;;;8.38;4.00;;;26.40;59.50;;;;;;5025934;28;20195;-75
2021/08/01 00:50:29;;;;;;;7.00;3.80;;;26.50;59.60;;;;;;5038160;28;20188;-75
2021/08/01 00:52:57;;;;;;;7.13;3.47;;;26.50;59.90;;;;;;5024357;28;20258;-75
2021/08/01 00:55:23;;;;;;;7.68;3.72;;;26.50;60.20;;;;;;5044639;28;20267;-75
2021/08/01 00:57:49;;;;;;;5.40;3.55;;;26.50;60.00;;;;;;5040737;28;20192;-75
2021/08/01 01:00:39;;;;;;;7.70;3.60;;;26.60;60.70;;;;;;5041784;28;20242;-75
2021/08/01 01:03:17;;;;;;;6.20;3.47;;;26.60;60.40;;;;;;5025935;28;20182;-75
2021/08/01 01:06:17;;;;;;;6.95;3.63;;;26.60;60.70;;;;;;5044260;28;20180;-75
2021/08/01 01:08:59;;;;;;;7.43;3.40;;;26.60;61.20;;;;;;5024683;28;20211;-75
2021/08/01 01:11:34;;;;;;;6.38;3.20;;;26.60;60.70;;;;;;5023953;28;20181;-75
2021/08/01 01:14:03;;;;;;;4.72;3.25;;;26.60;60.00;;;;;;5039826;28;20225;-75
2021/08/01 01:16:42;;;;;;;9.35;3.80;;;26.60;60.20;;;;;;5041629;28;20271;-75
2021/08/01 01:19:27;;;;;;;8.77;3.38;;;26.70;60.50;;;;;;5039185;28;20278;-75
2021/08/01 01:22:15;;;;;;;6.90;3.42;;;26.60;60.20;;;;;;5044387;28;20196;-75
2021/08/01 01:24:46;;;;;;;13.50;3.60;;;26.60;60.00;;;;;;5038517;28;20212;-75
2021/08/01 01:27:35;;;;;;;7.90;3.45;;;26.60;60.20;;;;;;5044660;28;20211;-75
2021/08/01 01:30:05;;;;;;;6.60;3.17;;;26.70;61.30;;;;;;5042252;28;20190;-75
2021/08/01 01:32:55;;;;;;;7.60;2.97;;;26.70;59.70;;;;;;5027171;28;20276;-75
2021/08/01 01:35:22;;;;;;;10.48;2.97;;;26.60;59.60;;;;;;5038977;28;20211;-75
2021/08/01 01:37:52;;;;;;;13.02;3.58;;;26.60;60.30;;;;;;5046992;28;20241;-75
2021/08/01 01:40:22;;;;;;;5.07;2.95;;;26.60;60.00;;;;;;5044283;28;20272;-75
2021/08/01 01:42:54;;;;;;;6.55;3.42;;;26.60;60.00;;;;;;5062038;28;20657;-75
2021/08/01 01:45:21;;;;;;;7.10;3.28;;;26.60;59.20;;;;;;5022189;28;20247;-75
2021/08/01 01:47:52;;;;;;;8.15;3.25;;;26.60;59.10;;;;;;5048524;28;20179;-75
2021/08/01 01:50:20;;;;;;;10.55;3.78;;;26.60;59.10;;;;;;5062214;28;20191;-75
2021/08/01 01:52:51;;;;;;;8.63;3.22;;;26.50;59.50;;;;;;5046758;28;20208;-75
2021/08/01 01:55:20;;;;;;;6.00;2.92;;;26.40;58.90;;;;;;5059704;28;20286;-75
2021/08/01 01:57:47;;;;;;;9.57;3.30;;;26.40;58.60;;;;;;5045481;28;20180;-75
2021/08/01 02:00:15;;;;;;;8.50;3.53;;;26.40;58.60;;;;;;5045508;28;20210;-75
2021/08/01 02:02:41;;;;;;;5.00;3.10;;;26.30;58.60;;;;;;5027505;28;20271;-75
2021/08/01 02:05:09;;;;;;;7.05;3.17;;;26.30;58.90;;;;;;5045530;28;20210;-76
2021/08/01 02:07:38;;;;;;;9.38;3.05;;;26.30;58.90;;;;;;5048116;28;20175;-76
2021/08/01 02:10:29;;;;;;;8.52;3.15;;;26.20;58.70;;;;;;5047467;28;20596;-75
2021/08/01 02:12:59;;;;;;;6.72;3.45;;;26.20;58.80;;;;;;5045563;28;20655;-75
2021/08/01 02:15:50;;;;;;;9.73;3.00;;;26.20;58.80;;;;;;5029736;28;20195;-75
2021/08/01 02:18:24;;;;;;;7.95;3.03;;;26.20;58.80;;;;;;5046377;28;20540;-75
2021/08/01 02:20:56;;;;;;;9.02;3.30;;;26.10;58.20;;;;;;5046954;28;20218;-75
2021/08/01 02:23:31;;;;;;;12.63;3.40;;;26.10;58.70;;;;;;5047073;28;20298;-75
2021/08/01 02:25:59;;;;;;;8.13;2.92;;;26.10;58.40;;;;;;5030659;28;20651;-75
2021/08/01 02:28:29;;;;;;;10.85;2.97;;;26.10;58.50;;;;;;5046204;28;20195;-74
2021/08/01 02:30:57;;;;;;;7.85;3.35;;;26.00;58.10;;;;;;5045834;28;20199;-73
2021/08/01 02:33:27;;;;;;;12.15;3.38;;;26.00;57.70;;;;;;5062765;28;20907;-73
2021/08/01 02:36:01;;;;;;;9.43;3.13;;;26.00;57.90;;;;;;5045083;28;20582;-74
2021/08/01 02:38:30;;;;;;;7.85;2.92;;;26.00;57.70;;;;;;5045456;28;20191;-74
2021/08/01 02:41:09;;;;;;;4.97;2.88;;;26.00;57.90;;;;;;5029585;28;20214;-74
2021/08/01 02:43:36;;;;;;;7.57;3.25;;;26.00;57.60;;;;;;5045627;28;20294;-72
2021/08/01 02:46:06;;;;;;;7.38;3.33;;;26.00;57.40;;;;;;5046661;28;20218;-74
2021/08/01 02:48:34;;;;;;;10.32;4.03;;;26.00;57.90;;;;;;5045618;28;20176;-75
2021/08/01 02:51:04;;;;;;;10.27;3.13;;;26.00;57.40;;;;;;5042513;28;20653;-75
2021/08/01 02:53:42;;;;;;;15.68;3.97;;;26.00;57.60;;;;;;5032387;28;20199;-73
2021/08/01 02:56:11;;;;;;;15.88;3.90;;;26.00;57.50;;;;;;5043931;28;20668;-75
2021/08/01 02:58:39;;;;;;;6.60;3.22;;;26.00;58.00;;;;;;5042709;28;20191;-74
2021/08/01 03:01:07;;;;;;;7.95;3.08;;;26.00;57.40;;;;;;5045725;28;20322;-74
2021/08/01 03:03:36;;;;;;;12.27;3.35;;;26.00;57.70;;;;;;5048456;28;20211;-74
2021/08/01 03:06:06;;;;;;;6.75;3.28;;;26.00;57.20;;;;;;5045948;28;20175;-74
2021/08/01 03:08:33;;;;;;;6.15;3.28;;;26.00;57.40;;;;;;5044275;28;20627;-74
2021/08/01 03:11:00;;;;;;;12.10;3.25;;;25.90;57.40;;;;;;5045311;28;20629;-74
2021/08/01 03:13:26;;;;;;;8.68;3.03;;;25.90;57.20;;;;;;5027128;28;20195;-74
2021/08/01 03:15:53;;;;;;;7.18;2.75;;;25.90;56.90;;;;;;5047197;28;20183;-74
2021/08/01 03:18:19;;;;;;;6.38;3.17;;;25.90;57.20;;;;;;5024182;28;20876;-74
2021/08/01 03:20:45;;;;;;;10.77;3.70;;;25.90;57.30;;;;;;5028406;28;20199;-74
2021/08/01 03:23:12;;;;;;;9.90;3.15;;;25.90;57.40;;;;;;5058765;28;20183;-74
2021/08/01 03:25:39;;;;;;;7.55;3.30;;;25.90;57.50;;;;;;5046179;28;20193;-74
2021/08/01 03:28:06;;;;;;;6.68;3.28;;;25.90;57.70;;;;;;5042613;28;21016;-74
2021/08/01 03:30:32;;;;;;;5.07;2.88;;;25.90;58.50;;;;;;5049125;28;20286;-73
2021/08/01 03:32:59;;;;;;;7.93;3.42;;;25.90;59.00;;;;;;5044589;28;20188;-74
2021/08/01 03:35:28;;;;;;;6.15;2.90;;;25.90;58.40;;;;;;5045687;28;20214;-73
2021/08/01 03:37:55;;;;;;;11.93;3.42;;;25.90;58.70;;;;;;5043576;28;20195;-73
2021/08/01 03:40:21;;;;;;;8.40;3.42;;;25.90;58.50;;;;;;5043090;28;20187;-73
2021/08/01 03:42:48;;;;;;;9.13;3.45;;;25.90;58.20;;;;;;5047287;28;20182;-74
2021/08/01 03:45:15;;;;;;;8.43;3.63;;;25.90;58.50;;;;;;5025998;28;20233;-74
2021/08/01 03:47:41;;;;;;;6.50;3.42;;;25.90;58.90;;;;;;5028675;28;20207;-74
2021/08/01 03:50:08;;;;;;;8.70;3.78;;;25.90;59.40;;;;;;5042738;28;20179;-73
2021/08/01 03:52:35;;;;;;;9.85;3.50;;;25.90;59.00;;;;;;5061500;28;20179;-73
2021/08/01 03:55:02;;;;;;;7.65;3.45;;;25.80;59.60;;;;;;5041634;28;20680;-74
2021/08/01 03:57:28;;;;;;;9.77;3.75;;;25.80;59.40;;;;;;5023862;28;20191;-74
2021/08/01 03:59:55;;;;;;;7.03;3.70;;;25.80;60.00;;;;;;5044533;28;20564;-74
2021/08/01 04:02:21;;;;;;;8.90;3.72;;;25.80;60.60;;;;;;5028251;28;20183;-74
2021/08/01 04:04:49;;;;;;;8.25;3.60;;;25.80;61.00;;;;;;5024852;28;20228;-73
2021/08/01 04:07:15;;;;;;;7.35;3.67;;;25.70;60.80;;;;;;5039652;28;20183;-74
2021/08/01 04:09:42;;;;;;;11.57;3.72;;;25.80;61.00;;;;;;5039202;28;20203;-74
2021/08/01 04:12:08;;;;;;;9.48;3.83;;;25.90;61.70;;;;;;5040512;28;20204;-74
2021/08/01 04:14:35;;;;;;;5.53;3.47;;;25.90;61.50;;;;;;5041949;28;20860;-75
2021/08/01 04:17:01;;;;;;;7.78;3.53;;;25.90;61.10;;;;;;5043799;28;20277;-75
2021/08/01 04:19:27;;;;;;;10.25;3.78;;;25.90;61.20;;;;;;5025249;28;20184;-73
2021/08/01 04:21:54;;;;;;;9.18;3.67;;;25.90;61.40;;;;;;5034970;28;20282;-74
2021/08/01 04:24:20;;;;;;;10.13;3.28;;;25.90;62.20;;;;;;5051681;28;20195;-74
2021/08/01 04:26:49;;;;;;;6.43;3.30;;;25.90;62.40;;;;;;5039466;28;20597;-74
2021/08/01 04:29:15;;;;;;;5.40;3.80;;;25.90;62.90;;;;;;5040546;28;20183;-74
2021/08/01 04:31:41;;;;;;;7.65;3.28;;;26.00;63.30;;;;;;5056467;28;20238;-74
2021/08/01 04:34:07;;;;;;;4.65;3.28;;;26.00;62.90;;;;;;5053724;28;20179;-74
2021/08/01 04:36:34;;;;;;;6.72;3.50;;;26.10;64.00;;;;;;5059674;28;20202;-74
2021/08/01 04:39:01;;;;;;;8.07;3.22;;;26.10;64.30;;;;;;5038401;28;20195;-75
2021/08/01 04:41:27;;;;;;;7.00;3.35;;;26.10;64.60;;;;;;5041415;28;20195;-74
2021/08/01 04:43:54;;;;;;;6.53;3.80;;;26.10;64.40;;;;;;5058817;28;20226;-74
2021/08/01 04:46:20;;;;;;;6.78;3.05;;;26.20;65.40;;;;;;5042344;28;20289;-74
2021/08/01 04:48:46;;;;;;;4.63;2.78;;;26.20;66.20;;;;;;5037315;28;20198;-73
2021/08/01 04:51:13;;;;;;;9.98;3.55;;;26.20;66.30;;;;;;5055178;28;20264;-74
2021/08/01 04:53:39;;;;;;;5.78;3.08;;;26.20;66.70;;;;;;5042187;28;20200;-75
2021/08/01 04:56:10;;;;;;;307.17;16.80;;;26.30;67.50;;;;;;5038476;28;20188;-74
2021/08/01 04:58:37;;;;;;;12.20;3.10;;;26.30;68.40;;;;;;5059052;28;20560;-75
2021/08/01 05:01:13;;;;;;;10.18;3.20;;;26.40;68.60;;;;;;5053760;28;20203;-73
2021/08/01 05:03:42;;;;;;;9.57;2.85;;;26.50;68.70;;;;;;5061015;28;20203;-74
2021/08/01 05:06:10;;;;;;;13.00;3.45;;;26.60;69.50;;;;;;5043706;28;20188;-73
2021/08/01 05:08:37;;;;;;;5.68;2.97;;;26.70;71.00;;;;;;5046300;28;20792;-74
2021/08/01 05:11:04;;;;;;;4.85;2.90;;;26.70;70.00;;;;;;5034128;28;20183;-74
2021/08/01 05:13:30;;;;;;;4.90;3.10;;;26.70;71.60;;;;;;5043841;28;20318;-73
2021/08/01 05:15:57;;;;;;;10.38;4.03;;;26.80;71.20;;;;;;5029988;28;20180;-73
2021/08/01 05:18:24;;;;;;;8.50;3.15;;;26.90;71.70;;;;;;5041952;28;20334;-74
2021/08/01 05:20:50;;;;;;;10.75;3.50;;;27.00;71.70;;;;;;5043650;28;20183;-74
2021/08/01 05:23:18;;;;;;;9.23;2.92;;;27.20;72.80;;;;;;5046392;28;20187;-74
2021/08/01 05:25:44;;;;;;;6.70;3.03;;;27.20;71.80;;;;;;5039329;28;20521;-74
2021/08/01 05:28:11;;;;;;;5.82;2.90;;;27.20;73.40;;;;;;5044681;28;20187;-74
2021/08/01 05:30:37;;;;;;;7.43;3.33;;;27.20;73.00;;;;;;5061944;28;20346;-74
2021/08/01 05:33:07;;;;;;;12.38;3.13;;;27.30;72.30;;;;;;5037302;28;20187;-74
2021/08/01 05:35:37;;;;;;;7.85;3.40;;;27.60;71.90;;;;;;5044655;28;20782;-74
2021/08/01 05:38:04;;;;;;;5.88;2.92;;;27.60;71.90;;;;;;5045896;28;20193;-74
2021/08/01 05:40:30;;;;;;;11.88;3.75;;;27.50;72.40;;;;;;5039048;28;21203;-74
2021/08/01 05:42:59;;;;;;;13.05;3.28;;;27.50;72.80;;;;;;5042297;28;20545;-73
2021/08/01 05:45:27;;;;;;;15.18;3.05;;;27.50;72.00;;;;;;5040157;28;20219;-74
2021/08/01 05:47:55;;;;;;;13.73;3.15;;;27.50;71.40;;;;;;5006546;28;20192;-74
2021/08/01 05:50:22;;;;;;;14.63;3.28;;;27.60;72.00;;;;;;5058193;28;20180;-74
2021/08/01 05:52:49;;;;;;;13.88;3.20;;;27.60;72.40;;;;;;5038469;28;20242;-74
2021/08/01 05:55:15;;;;;;;11.90;3.58;;;27.50;73.90;;;;;;5042511;28;20191;-73
2021/08/01 05:57:41;;;;;;;8.30;3.40;;;27.60;73.80;;;;;;5040103;28;20188;-74
2021/08/01 06:00:08;;;;;;;14.20;3.25;;;28.00;73.90;;;;;;5047332;28;20257;-76
2021/08/01 06:02:35;;;;;;;9.73;3.58;;;28.10;74.20;;;;;;5044165;28;20255;-73
2021/08/01 06:05:01;;;;;;;10.18;3.30;;;28.00;73.80;;;;;;5030988;28;20291;-74
2021/08/01 06:07:27;;;;;;;9.95;3.28;;;27.90;75.30;;;;;;5042293;28;20632;-73
2021/08/01 06:09:54;;;;;;;10.50;3.28;;;28.10;74.70;;;;;;5042016;28;20607;-75
2021/08/01 06:12:21;;;;;;;9.00;3.33;;;28.20;74.30;;;;;;5036195;28;20211;-73
2021/08/01 06:14:49;;;;;;;11.13;3.45;;;28.20;74.40;;;;;;5037013;28;20190;-75
2021/08/01 06:17:16;;;;;;;10.98;3.45;;;28.10;75.20;;;;;;5041804;28;20195;-73
2021/08/01 06:19:42;;;;;;;7.97;3.63;;;28.10;75.70;;;;;;5046486;28;20187;-74
2021/08/01 06:22:09;;;;;;;23.23;3.33;;;28.10;74.90;;;;;;5040642;28;20187;-76
2021/08/01 06:24:35;;;;;;;9.88;3.97;;;28.40;75.40;;;;;;5041178;28;20207;-73
2021/08/01 06:27:03;;;;;;;14.18;4.18;;;28.50;74.60;;;;;;5042404;28;20190;-75
2021/08/01 06:29:29;;;;;;;6.60;3.13;;;28.40;75.00;;;;;;5042589;28;20188;-74
2021/08/01 06:31:57;;;;;;;12.50;3.45;;;28.30;75.30;;;;;;5011171;28;20204;-74
2021/08/01 06:34:24;;;;;;;8.00;3.03;;;28.30;75.30;;;;;;5045348;28;20188;-73
2021/08/01 06:36:50;;;;;;;10.75;3.42;;;28.40;75.60;;;;;;5047447;28;20184;-75
2021/08/01 06:39:20;;;;;;;6.65;3.38;;;28.60;76.60;;;;;;5030556;28;20191;-76
2021/08/01 06:41:46;;;;;;;10.85;3.20;;;28.70;76.40;;;;;;5043779;28;20249;-74
2021/08/01 06:44:13;;;;;;;12.00;3.53;;;28.50;76.50;;;;;;5045270;28;20303;-76
2021/08/01 06:46:39;;;;;;;6.82;3.00;;;28.50;77.60;;;;;;5045098;28;20223;-76
2021/08/01 06:49:06;;;;;;;7.05;3.70;;;28.70;77.80;;;;;;5059050;28;20188;-76
2021/08/01 06:51:32;;;;;;;13.95;3.20;;;28.60;77.30;;;;;;5061692;28;20175;-76
2021/08/01 06:53:59;;;;;;;9.50;3.60;;;28.80;77.50;;;;;;5045035;28;20318;-76
2021/08/01 06:56:30;;;;;;;15.55;3.40;;;29.00;76.80;;;;;;5046589;28;20188;-76
2021/08/01 06:58:56;;;;;;;7.75;3.28;;;29.10;77.00;;;;;;5059599;28;20211;-76
2021/08/01 07:01:23;;;;;;;9.05;3.38;;;29.00;76.90;;;;;;5043677;28;20187;-73
2021/08/01 07:03:49;;;;;;;5.72;3.33;;;28.90;77.20;;;;;;5041854;28;20223;-75
2021/08/01 07:06:16;;;;;;;15.20;3.58;;;28.80;77.10;;;;;;5044642;28;20187;-75
2021/08/01 07:08:42;;;;;;;9.55;3.90;;;29.00;76.10;;;;;;5044238;28;20176;-75
2021/08/01 07:11:08;;;;;;;12.93;4.07;;;29.10;76.10;;;;;;5025181;28;21336;-76
2021/08/01 07:13:36;;;;;;;8.27;3.45;;;29.60;75.20;;;;;;5043670;28;20184;-75
2021/08/01 07:16:06;;;;;;;11.25;3.08;;;29.80;74.70;;;;;;5046821;28;20260;-75
2021/08/01 07:18:33;;;;;;;10.52;3.30;;;29.60;75.40;;;;;;5059432;28;20860;-75
2021/08/01 07:21:00;;;;;;;12.00;3.42;;;29.70;75.20;;;;;;5040027;28;20241;-76
2021/08/01 07:23:27;;;;;;;11.00;3.75;;;29.80;72.60;;;;;;5040075;28;20201;-75
2021/08/01 07:25:53;;;;;;;11.43;3.65;;;29.90;72.70;;;;;;5042629;28;20198;-75
2021/08/01 07:28:20;;;;;;;8.27;3.78;;;30.00;73.00;;;;;;5056557;28;20712;-76
2021/08/01 07:30:46;;;;;;;6.28;3.20;;;30.00;72.80;;;;;;5044998;28;20195;-73
2021/08/01 07:33:13;;;;;;;19.83;3.90;;;30.20;72.20;;;;;;5025991;28;20183;-75
2021/08/01 07:35:43;;;;;;;10.88;3.50;;;30.50;71.30;;;;;;5041789;28;20201;-74
2021/08/01 07:38:09;;;;;;;6.78;3.30;;;30.30;72.30;;;;;;5044174;28;20197;-74
2021/08/01 07:40:35;;;;;;;8.10;3.38;;;30.50;72.10;;;;;;5041495;28;20681;-73
2021/08/01 07:43:02;;;;;;;5.40;3.55;;;30.40;71.00;;;;;;5044305;28;20179;-74
2021/08/01 07:45:33;;;;;;;16.65;3.95;;;30.20;73.40;;;;;;5039638;28;20722;-75
2021/08/01 07:48:01;;;;;;;10.13;4.25;;;30.50;70.30;;;;;;5041351;28;20184;-75
2021/08/01 07:50:29;;;;;;;10.13;3.58;;;30.80;70.20;;;;;;5027934;28;20180;-73
2021/08/01 07:52:55;;;;;;;6.78;3.33;;;30.80;69.90;;;;;;5026091;28;20180;-73
2021/08/01 07:55:22;;;;;;;13.15;3.50;;;30.70;72.00;;;;;;5055498;28;20187;-75
2021/08/01 07:57:50;;;;;;;10.27;3.40;;;30.80;70.10;;;;;;5054805;28;20180;-74
2021/08/01 08:00:17;;;;;;;6.80;3.55;;;31.00;71.10;;;;;;5023828;28;20190;-74
2021/08/01 08:02:45;;;;;;;15.60;3.78;;;30.70;71.10;;;;;;5025222;28;20691;-75
2021/08/01 08:05:12;;;;;;;16.00;3.65;;;31.10;70.20;;;;;;5039848;28;20245;-73
2021/08/01 08:07:39;;;;;;;10.35;4.10;;;31.10;70.00;;;;;;5024298;28;20191;-75
2021/08/01 08:10:10;;;;;;;16.42;3.47;;;31.40;68.50;;;;;;5057148;28;20728;-73
2021/08/01 08:12:37;;;;;;;13.40;4.32;;;31.60;69.50;;;;;;5022889;28;20172;-72
2021/08/01 08:15:06;;;;;;;13.68;3.80;;;31.30;71.10;;;;;;5039647;28;20188;-76
2021/08/01 08:17:36;;;;;;;15.48;3.80;;;31.40;68.50;;;;;;5039790;28;20194;-74
2021/08/01 08:20:06;;;;;;;8.68;3.97;;;31.40;67.90;;;;;;5041468;28;20183;-72
2021/08/01 08:22:33;;;;;;;15.95;4.03;;;31.80;68.60;;;;;;5039899;28;20180;-74
2021/08/01 08:24:59;;;;;;;9.50;3.42;;;31.80;66.10;;;;;;5020217;28;20234;-74
2021/08/01 08:27:26;;;;;;;13.88;3.67;;;32.10;66.00;;;;;;5045423;28;20183;-75
2021/08/01 08:29:53;;;;;;;13.40;3.83;;;32.10;65.70;;;;;;5026069;28;20187;-72
2021/08/01 08:33:04;;;;;;;10.65;3.47;;;32.30;66.10;;;;;;5040251;28;20197;-75
2021/08/01 08:35:33;;;;;;;13.13;3.80;;;32.10;65.30;;;;;;5043474;28;20198;-72
2021/08/01 08:38:00;;;;;;;9.05;3.60;;;32.30;65.50;;;;;;5041522;28;20270;-75
2021/08/01 08:40:27;;;;;;;13.57;3.78;;;32.30;65.10;;;;;;5046848;28;20316;-74
2021/08/01 08:42:56;;;;;;;9.63;3.70;;;32.40;65.50;;;;;;5045170;28;20187;-73
2021/08/01 08:45:24;;;;;;;12.20;3.30;;;32.60;63.90;;;;;;5046717;28;20223;-72
2021/08/01 08:47:53;;;;;;;7.50;3.50;;;32.50;65.10;;;;;;5043106;28;20219;-72
2021/08/01 08:50:24;;;;;;;10.73;3.78;;;32.60;63.40;;;;;;5042676;28;20234;-72
2021/08/01 08:53:06;;;;;;;13.02;3.70;;;32.80;63.80;;;;;;5027035;28;20191;-72
2021/08/01 08:55:38;;;;;;;12.48;4.05;;;32.90;64.60;;;;;;5053529;28;20683;-74
2021/08/01 08:58:07;;;;;;;7.80;3.78;;;33.10;64.70;;;;;;5032115;28;20655;-72
2021/08/01 09:00:38;;;;;;;12.00;3.60;;;33.30;65.00;;;;;;5044855;28;20226;-72
2021/08/01 09:03:13;;;;;;;14.13;3.38;;;33.30;66.10;;;;;;5027350;28;20719;-72
2021/08/01 09:05:44;;;;;;;9.00;3.97;;;33.40;66.10;;;;;;5025152;28;20225;-73
2021/08/01 09:08:13;;;;;;;16.05;3.92;;;33.40;66.10;;;;;;5047180;28;20215;-72
2021/08/01 09:10:41;;;;;;;9.90;3.85;;;33.40;66.80;;;;;;5044901;28;20579;-73
2021/08/01 09:13:10;;;;;;;7.88;3.47;;;33.30;68.20;;;;;;5043606;28;20183;-73
2021/08/01 09:15:39;;;;;;;11.50;4.13;;;33.50;68.30;;;;;;5025312;28;20190;-73
2021/08/01 09:18:16;;;;;;;12.23;4.15;;;33.60;68.00;;;;;;5045815;28;20562;-74
2021/08/01 09:20:55;;;;;;;13.20;4.43;;;33.60;68.20;;;;;;5044029;28;20211;-74
2021/08/01 09:23:25;;;;;;;13.77;4.13;;;33.60;69.20;;;;;;5042845;28;20197;-74
2021/08/01 09:26:05;;;;;;;8.18;3.75;;;33.80;70.30;;;;;;5026735;28;20258;-75
2021/08/01 09:28:33;;;;;;;10.60;4.03;;;33.80;69.90;;;;;;5045136;28;20187;-75
2021/08/01 09:31:06;;;;;;;16.02;3.65;;;33.90;69.90;;;;;;5041654;28;20180;-75
2021/08/01 09:33:38;;;;;;;12.27;4.03;;;33.90;69.80;;;;;;5043871;28;20206;-75
2021/08/01 09:36:24;;;;;;;9.13;4.07;;;34.10;70.70;;;;;;5041483;28;20184;-75
2021/08/01 09:38:54;;;;;;;13.07;3.92;;;34.10;70.10;;;;;;5026676;28;20206;-76
2021/08/01 09:41:26;;;;;;;8.27;3.88;;;33.90;70.50;;;;;;5054007;28;20216;-75
2021/08/01 09:44:02;;;;;;;12.23;4.07;;;34.00;70.50;;;;;;5024294;28;20203;-74
2021/08/01 09:46:50;;;;;;;7.40;3.67;;;34.10;69.90;;;;;;5041346;28;20309;-75
2021/08/01 09:49:26;;;;;;;11.32;4.05;;;34.30;69.00;;;;;;5028813;28;20241;-75
2021/08/01 09:52:03;;;;;;;9.52;3.72;;;34.40;67.70;;;;;;5033088;28;20194;-77
2021/08/01 09:54:50;;;;;;;7.05;3.47;;;34.40;67.30;;;;;;5023495;28;20183;-76
2021/08/01 09:57:21;;;;;;;7.55;3.72;;;34.60;66.20;;;;;;5033695;28;20238;-77
2021/08/01 10:00:10;;;;;;;7.63;3.65;;;34.70;66.00;;;;;;5048408;28;20261;-77
2021/08/01 10:02:41;;;;;;;15.25;4.07;;;34.90;64.10;;;;;;5038523;28;20726;-77
2021/08/01 10:05:25;;;;;;;9.90;3.78;;;35.00;63.80;;;;;;5041866;28;20743;-76
2021/08/01 10:07:54;;;;;;;14.25;3.75;;;35.20;61.60;;;;;;5041295;28;20190;-74
2021/08/01 10:10:35;;;;;;;13.93;4.22;;;35.30;60.80;;;;;;5027138;28;20262;-75
2021/08/01 10:13:02;;;;;;;8.35;3.25;;;35.40;58.00;;;;;;5039789;28;20183;-76
2021/08/01 10:15:32;;;;;;;9.63;3.85;;;35.40;57.40;;;;;;5042393;28;20261;-76
2021/08/01 10:18:00;;;;;;;17.27;3.33;;;36.10;55.60;;;;;;5045407;28;20190;-76
2021/08/01 10:20:31;;;;;;;12.55;3.45;;;36.20;56.10;;;;;;5033170;28;20184;-76
2021/08/01 10:23:00;;;;;;;14.70;3.30;;;36.10;56.90;;;;;;5038137;28;20190;-75
2021/08/01 10:25:33;;;;;;;12.02;3.75;;;36.10;57.40;;;;;;5041954;28;20989;-75
2021/08/01 10:28:06;;;;;;;15.00;3.97;;;36.40;57.70;;;;;;5044356;28;20183;-76
2021/08/01 10:30:44;;;;;;;10.82;3.30;;;37.30;57.50;;;;;;5029411;28;20210;-76
2021/08/01 10:33:15;;;;;;;10.70;3.60;;;37.80;56.40;;;;;;5035477;28;20653;-75
2021/08/01 10:36:03;;;;;;;15.85;4.05;;;37.90;56.60;;;;;;5024492;28;20254;-76
2021/08/01 10:38:37;;;;;;;6.75;3.60;;;37.50;54.80;;;;;;5043063;28;20199;-75
2021/08/01 10:41:14;;;;;;;13.05;4.60;;;37.00;54.80;;;;;;5039130;28;20676;-76
2021/08/01 10:43:51;;;;;;;13.95;3.90;;;36.90;53.80;;;;;;5037111;28;20751;-77
2021/08/01 10:46:21;;;;;;;9.65;3.67;;;36.80;52.30;;;;;;5022285;28;20226;-76
2021/08/01 10:48:49;;;;;;;7.97;3.95;;;36.70;55.30;;;;;;5044677;28;20184;-76
2021/08/01 10:51:16;;;;;;;15.52;4.13;;;36.70;51.00;;;;;;5021929;28;20270;-75
2021/08/01 10:53:43;;;;;;;13.43;4.32;;;36.60;54.30;;;;;;5026123;28;20191;-76
2021/08/01 10:56:16;;;;;;;9.43;4.28;;;36.60;50.60;;;;;;5025675;28;21281;-75
2021/08/01 10:58:45;;;;;;;15.45;3.58;;;36.60;50.40;;;;;;5046056;28;20220;-75
2021/08/01 11:01:19;;;;;;;8.98;3.90;;;36.70;53.80;;;;;;5031730;28;20183;-76
2021/08/01 11:04:09;;;;;;;12.18;3.78;;;36.60;50.20;;;;;;5040656;28;20286;-76
2021/08/01 11:06:43;;;;;;;10.43;3.42;;;36.50;52.20;;;;;;5046273;28;20175;-76
2021/08/01 11:09:13;;;;;;;10.13;3.50;;;36.40;52.80;;;;;;5042869;28;20234;-76
2021/08/01 11:11:48;;;;;;;9.30;3.17;;;36.60;53.40;;;;;;5034557;28;20201;-76
2021/08/01 11:15:02;;;;;;;11.30;3.05;;;36.80;53.60;;;;;;5030556;28;20185;-76
2021/08/01 11:17:51;;;;;;;8.45;3.20;;;36.60;51.00;;;;;;5042252;28;20573;-76
2021/08/01 11:20:18;;;;;;;13.23;3.20;;;36.50;50.40;;;;;;5042585;28;20184;-76
2021/08/01 11:22:45;;;;;;;8.55;3.08;;;36.50;50.50;;;;;;5055191;28;20195;-76
2021/08/01 11:25:27;;;;;;;10.73;3.15;;;36.40;50.80;;;;;;5029111;28;20200;-76
2021/08/01 11:28:11;;;;;;;11.88;2.90;;;36.30;50.90;;;;;;5029190;28;20618;-76
2021/08/01 11:30:57;;;;;;;11.88;3.30;;;36.30;51.80;;;;;;5031458;28;20179;-74
2021/08/01 11:33:35;;;;;;;15.13;3.13;;;36.10;53.20;;;;;;5031807;28;20179;-77
2021/08/01 11:38:48;;;;;;;6.80;3.00;;;35.90;52.70;;;;;;5047376;28;20179;-79
2021/08/01 11:41:38;;;;;;;10.00;3.00;;;36.10;50.80;;;;;;5045135;28;20167;-78
2021/08/01 11:44:12;;;;;;;7.88;3.15;;;36.00;51.50;;;;;;5025527;28;20667;-77
2021/08/01 11:46:58;;;;;;;8.43;3.25;;;36.10;50.10;;;;;;5044684;28;20294;-75
2021/08/01 11:49:49;;;;;;;9.45;3.15;;;36.10;51.00;;;;;;5032416;28;21288;-78
2021/08/01 11:52:46;;;;;;;15.30;3.85;;;36.20;51.40;;;;;;5028820;28;20321;-77
2021/08/01 11:55:19;;;;;;;11.10;3.40;;;36.20;51.20;;;;;;5023790;28;20192;-78
2021/08/01 11:57:50;;;;;;;7.18;3.00;;;36.30;50.50;;;;;;5030131;28;20183;-76
2021/08/01 12:00:26;;;;;;;10.45;3.05;;;36.20;49.80;;;;;;5033999;28;20280;-78
2021/08/01 12:02:58;;;;;;;25.10;3.50;;;36.30;50.80;;;;;;5030944;28;20636;-78
2021/08/01 12:05:47;;;;;;;14.57;3.13;;;36.30;50.80;;;;;;5066138;28;20303;-78
2021/08/01 12:08:36;;;;;;;20.85;3.65;;;36.10;51.30;;;;;;5043449;28;20180;-77
2021/08/01 12:11:17;;;;;;;9.90;2.95;;;36.00;50.10;;;;;;5031470;28;20240;-77
2021/08/01 12:14:07;;;;;;;6.82;3.05;;;36.00;50.30;;;;;;5043604;28;20206;-77
2021/08/01 12:16:35;;;;;;;9.05;3.13;;;36.20;50.60;;;;;;5027862;28;20188;-77
2021/08/01 12:19:15;;;;;;;9.90;3.10;;;36.00;50.70;;;;;;5029989;28;20195;-78
2021/08/01 12:21:43;;;;;;;8.73;3.22;;;36.00;51.20;;;;;;5044666;28;20187;-75
2021/08/01 12:24:41;;;;;;;10.82;2.75;;;36.00;50.20;;;;;;5044282;28;20265;-77
2021/08/01 12:27:19;;;;;;;5.00;2.83;;;36.10;51.20;;;;;;5043088;28;20286;-77
2021/08/01 12:29:54;;;;;;;7.07;3.25;;;36.20;52.20;;;;;;5025325;28;20816;-77
2021/08/01 12:32:32;;;;;;;14.70;3.00;;;36.10;50.80;;;;;;5046669;28;20198;-78
2021/08/01 12:35:13;;;;;;;8.77;2.92;;;36.10;51.60;;;;;;5042364;28;20244;-77
2021/08/01 12:37:46;;;;;;;10.80;2.90;;;36.10;52.80;;;;;;5027602;28;20989;-78
2021/08/01 12:40:29;;;;;;;12.02;3.33;;;36.10;52.60;;;;;;5024497;28;20834;-78
2021/08/01 12:43:07;;;;;;;9.95;3.08;;;36.10;53.50;;;;;;5043593;28;20187;-78
2021/08/01 12:45:39;;;;;;;8.18;3.30;;;36.20;52.80;;;;;;5025653;28;20211;-78
2021/08/01 12:48:26;;;;;;;17.33;3.25;;;36.00;51.70;;;;;;5041465;28;20179;-75
2021/08/01 12:50:57;;;;;;;7.63;3.38;;;35.80;53.90;;;;;;5048169;28;20257;-77
2021/08/01 12:53:27;;;;;;;13.95;3.03;;;35.60;54.80;;;;;;5060027;28;20180;-74
2021/08/01 12:55:59;;;;;;;10.57;2.90;;;35.30;57.40;;;;;;5045205;28;20200;-77
2021/08/01 12:58:46;;;;;;;10.55;3.35;;;34.70;59.50;;;;;;5056762;28;20191;-78
2021/08/01 13:01:19;;;;;;;11.55;3.55;;;34.70;60.00;;;;;;5042563;28;20329;-78
2021/08/01 13:03:58;;;;;;;9.15;3.15;;;34.90;65.00;;;;;;5047322;28;20204;-77
2021/08/01 13:06:31;;;;;;;8.90;3.42;;;35.10;63.20;;;;;;5023328;28;20180;-77